createdAt,value
2022-09-23T00:00:48.231Z,82.60
2022-09-23T00:03:15.271Z,82.41
2022-09-23T00:05:41.862Z,82.61
2022-09-23T00:08:08.511Z,82.16
2022-09-23T00:10:37.100Z,82.30
2022-09-23T00:13:03.864Z,82.38
2022-09-23T00:15:31.564Z,81.96
2022-09-23T00:17:58.597Z,82.13
2022-09-23T00:20:26.169Z,82.37
2022-09-23T00:22:53.659Z,82.02
2022-09-23T00:25:20.402Z,82.34
2022-09-23T00:27:46.962Z,82.11
2022-09-23T00:30:13.793Z,82.58
2022-09-23T00:32:40.761Z,83.25
2022-09-23T00:35:08.966Z,82.95
2022-09-23T00:37:35.600Z,83.59
2022-09-23T00:40:03.052Z,83.35
2022-09-23T00:42:29.674Z,83.81
2022-09-23T00:44:59.566Z,83.25
2022-09-23T00:47:39.877Z,83.12
2022-09-23T00:50:30.851Z,83.14
2022-09-23T00:53:00.263Z,83.39
2022-09-23T00:55:40.165Z,83.09
2022-09-23T00:58:11.351Z,83.12
2022-09-23T01:00:38.910Z,83.29
2022-09-23T01:03:07.389Z,83.35
2022-09-23T01:05:34.297Z,83.67
2022-09-23T01:08:01.094Z,83.69
2022-09-23T01:10:33.078Z,83.47
2022-09-23T01:13:26.874Z,83.68
2022-09-23T01:16:09.880Z,83.71
2022-09-23T01:18:48.296Z,83.40
2022-09-23T01:21:22.793Z,83.35
2022-09-23T01:24:12.632Z,83.58
2022-09-23T01:27:00.619Z,83.28
2022-09-23T01:29:48.917Z,83.97
2022-09-23T01:32:36.382Z,83.29
2022-09-23T01:35:08.432Z,83.92
2022-09-23T01:37:46.688Z,83.26
2022-09-23T01:40:21.171Z,83.46
2022-09-23T01:42:54.942Z,84.11
2022-09-23T01:45:47.948Z,83.82
2022-09-23T01:48:21.749Z,83.94
2022-09-23T01:50:56.722Z,83.84
2022-09-23T01:53:23.205Z,83.91
2022-09-23T01:55:52.144Z,84.18
2022-09-23T01:58:29.102Z,83.96
2022-09-23T02:01:07.040Z,84.09
2022-09-23T02:03:50.064Z,84.26
2022-09-23T02:06:25.855Z,84.31
2022-09-23T02:09:00.431Z,84.37
2022-09-23T02:11:26.982Z,84.47
2022-09-23T02:13:58.423Z,84.53
2022-09-23T02:16:30.402Z,84.51
2022-09-23T02:19:11.643Z,84.45
2022-09-23T02:21:47.373Z,83.95
2022-09-23T02:24:20.097Z,84.22
2022-09-23T02:26:59.249Z,83.72
2022-09-23T02:29:32.884Z,83.66
2022-09-23T02:32:20.720Z,83.71
2022-09-23T02:35:00.189Z,84.07
2022-09-23T02:38:05.701Z,84.23
2022-09-23T02:40:47.518Z,83.85
2022-09-23T02:43:21.507Z,84.46
2022-09-23T02:45:48.200Z,84.38
2022-09-23T02:48:30.367Z,84.10
2022-09-23T02:50:56.976Z,84.28
2022-09-23T02:53:24.327Z,84.54
2022-09-23T02:55:51.187Z,84.55
2022-09-23T02:58:17.744Z,84.12
2022-09-23T03:00:56.715Z,84.31
2022-09-23T03:03:47.312Z,84.24
2022-09-23T03:06:32.559Z,84.70
2022-09-23T03:09:18.848Z,84.11
2022-09-23T03:11:50.297Z,84.57
2022-09-23T03:14:26.384Z,84.07
2022-09-23T03:17:03.634Z,84.08
2022-09-23T03:19:44.678Z,84.57
2022-09-23T03:22:20.956Z,84.15
2022-09-23T03:24:50.699Z,84.54
2022-09-23T03:27:23.524Z,84.22
2022-09-23T03:29:50.437Z,84.67
2022-09-23T03:32:18.742Z,84.29
2022-09-23T03:34:47.427Z,84.84
2022-09-23T03:37:20.608Z,84.74
2022-09-23T03:39:50.754Z,85.16
2022-09-23T03:42:22.337Z,85.16
2022-09-23T03:44:50.396Z,85.02
2022-09-23T03:47:17.076Z,84.77
2022-09-23T03:49:44.811Z,84.75
2022-09-23T03:52:11.611Z,84.37
2022-09-23T03:54:38.170Z,84.87
2022-09-23T03:57:04.776Z,84.33
2022-09-23T03:59:31.607Z,84.36
2022-09-23T04:01:59.547Z,84.74
2022-09-23T04:04:27.560Z,84.42
2022-09-23T04:06:57.256Z,84.55
2022-09-23T04:09:23.856Z,84.44
2022-09-23T04:11:50.990Z,84.20
2022-09-23T04:14:17.931Z,84.32
2022-09-23T04:16:44.659Z,84.47
2022-09-23T04:19:11.938Z,84.72
2022-09-23T04:21:39.023Z,84.74
2022-09-23T04:24:05.866Z,84.58
2022-09-23T04:26:32.648Z,84.50
2022-09-23T04:28:59.301Z,84.70
2022-09-23T04:31:26.042Z,84.02
2022-09-23T04:33:55.725Z,84.46
2022-09-23T04:36:22.465Z,84.63
2022-09-23T04:38:49.246Z,84.79
2022-09-23T04:41:16.480Z,84.22
2022-09-23T04:43:43.154Z,84.31
2022-09-23T04:46:11.276Z,84.73
2022-09-23T04:48:37.954Z,84.84
2022-09-23T04:51:05.167Z,84.58
2022-09-23T04:53:31.883Z,84.46
2022-09-23T04:56:05.762Z,84.71
2022-09-23T04:58:33.090Z,84.75
2022-09-23T05:01:08.887Z,84.91
2022-09-23T05:03:35.731Z,84.74
2022-09-23T05:06:02.310Z,85.03
2022-09-23T05:08:29.655Z,84.97
2022-09-23T05:10:59.887Z,85.29
2022-09-23T05:13:26.573Z,85.21
2022-09-23T05:16:00.790Z,85.34
2022-09-23T05:18:34.235Z,85.73
2022-09-23T05:21:01.255Z,85.17
2022-09-23T05:23:28.014Z,85.84
2022-09-23T05:26:02.663Z,85.94
2022-09-23T05:28:32.901Z,85.74
2022-09-23T05:31:04.947Z,86.01
2022-09-23T05:33:35.382Z,85.84
2022-09-23T05:36:02.386Z,85.75
2022-09-23T05:38:29.774Z,85.88
2022-09-23T05:40:57.246Z,85.87
2022-09-23T05:43:24.707Z,85.76
2022-09-23T05:45:51.919Z,85.81
2022-09-23T05:48:18.544Z,85.90
2022-09-23T05:50:51.687Z,85.63
2022-09-23T05:53:19.186Z,85.44
2022-09-23T05:55:46.020Z,85.51
2022-09-23T05:58:13.167Z,85.26
2022-09-23T06:00:43.143Z,85.16
2022-09-23T06:03:17.608Z,84.96
2022-09-23T06:05:44.228Z,84.43
2022-09-23T06:08:11.375Z,84.23
2022-09-23T06:10:43.223Z,84.39
2022-09-23T06:13:10.052Z,84.22
2022-09-23T06:15:38.206Z,83.79
2022-09-23T06:18:06.497Z,83.65
2022-09-23T06:20:34.423Z,83.29
2022-09-23T06:23:09.059Z,83.21
2022-09-23T06:25:38.611Z,83.61
2022-09-23T06:28:05.410Z,83.13
2022-09-23T06:30:31.950Z,83.62
2022-09-23T06:32:58.499Z,83.23
2022-09-23T06:35:27.703Z,82.99
2022-09-23T06:37:55.086Z,82.71
2022-09-23T06:40:22.632Z,82.40
2022-09-23T06:42:52.396Z,82.56
2022-09-23T06:45:19.224Z,82.46
2022-09-23T06:47:45.874Z,82.44
2022-09-23T06:50:12.903Z,82.65
2022-09-23T06:52:40.009Z,82.95
2022-09-23T06:55:07.627Z,82.96
2022-09-23T06:57:34.208Z,83.41
2022-09-23T07:00:00.915Z,83.03
2022-09-23T07:02:27.740Z,82.91
2022-09-23T07:04:57.520Z,82.63
2022-09-23T07:07:24.187Z,82.20
2022-09-23T07:09:51.350Z,82.70
2022-09-23T07:12:18.218Z,82.21
2022-09-23T07:14:46.027Z,82.28
2022-09-23T07:17:12.942Z,81.41
2022-09-23T07:19:39.569Z,81.28
2022-09-23T07:22:06.742Z,81.29
2022-09-23T07:24:34.280Z,80.81
2022-09-23T07:27:02.291Z,81.05
2022-09-23T07:29:33.976Z,79.95
2022-09-23T07:32:12.755Z,79.92
2022-09-23T07:34:40.495Z,79.18
2022-09-23T07:37:07.095Z,79.15
2022-09-23T07:39:33.694Z,78.72
2022-09-23T07:42:00.226Z,78.57
2022-09-23T07:44:27.286Z,78.12
2022-09-23T07:46:54.343Z,78.18
2022-09-23T07:49:21.235Z,78.12
2022-09-23T07:51:49.169Z,78.05
2022-09-23T07:54:17.047Z,77.78
2022-09-23T07:56:43.892Z,77.18
2022-09-23T07:59:14.079Z,76.45
2022-09-23T08:01:44.714Z,75.27
2022-09-23T08:04:17.871Z,73.22
2022-09-23T08:06:55.122Z,70.86
2022-09-23T08:09:24.209Z,69.67
2022-09-23T08:11:50.893Z,69.02
2022-09-23T08:14:18.503Z,68.67
2022-09-23T08:16:45.709Z,66.47
2022-09-23T08:19:12.866Z,66.12
2022-09-23T08:21:41.178Z,66.01
2022-09-23T08:24:18.518Z,66.54
2022-09-23T08:26:45.561Z,65.90
2022-09-23T08:29:13.315Z,66.59
2022-09-23T08:31:39.926Z,67.26
2022-09-23T08:34:06.888Z,67.59
2022-09-23T08:36:33.774Z,67.50
2022-09-23T08:39:00.485Z,67.78
2022-09-23T08:41:32.797Z,67.30
2022-09-23T08:44:03.647Z,67.64
2022-09-23T08:46:32.550Z,67.03
2022-09-23T08:49:00.323Z,67.19
2022-09-23T08:51:48.608Z,67.75
2022-09-23T08:54:16.544Z,67.22
2022-09-23T08:56:43.651Z,67.20
2022-09-23T08:59:36.905Z,67.20
2022-09-23T09:02:20.177Z,67.77
2022-09-23T09:04:49.550Z,68.37
2022-09-23T09:10:09.827Z,70.74
2022-09-23T09:12:47.600Z,70.14
2022-09-23T09:15:25.192Z,66.96
2022-09-23T09:17:55.878Z,64.33
2022-09-23T09:20:41.337Z,64.30
2022-09-23T09:23:07.807Z,63.49
2022-09-23T09:25:48.005Z,64.04
2022-09-23T09:28:36.104Z,64.18
2022-09-23T09:31:17.163Z,64.21
2022-09-23T09:33:51.599Z,61.87
2022-09-23T09:36:31.919Z,60.40
2022-09-23T09:39:01.266Z,59.62
2022-09-23T09:41:31.208Z,59.90
2022-09-23T09:44:00.791Z,61.44
2022-09-23T09:46:39.620Z,60.78
2022-09-23T09:49:14.622Z,59.16
2022-09-23T09:51:42.670Z,58.46
2022-09-23T09:54:17.490Z,58.18
2022-09-23T09:56:44.803Z,59.09
2022-09-23T09:59:15.263Z,59.50
2022-09-23T10:01:41.963Z,59.49
2022-09-23T10:04:31.433Z,57.08
2022-09-23T10:07:12.668Z,54.48
2022-09-23T10:09:40.003Z,53.40
2022-09-23T10:12:19.842Z,54.63
2022-09-23T10:14:47.287Z,55.32
2022-09-23T10:17:26.338Z,53.43
2022-09-23T10:20:06.494Z,53.85
2022-09-23T10:22:35.346Z,53.30
2022-09-23T10:25:05.734Z,54.62
2022-09-23T10:27:35.289Z,55.40
2022-09-23T10:30:23.617Z,55.58
2022-09-23T10:32:50.965Z,55.60
2022-09-23T10:35:21.210Z,56.03
2022-09-23T10:37:49.575Z,56.23
2022-09-23T10:40:48.265Z,55.21
2022-09-23T10:44:00.872Z,55.80
2022-09-23T10:46:39.750Z,51.95
2022-09-23T10:49:19.513Z,50.94
2022-09-23T10:51:53.646Z,51.24
2022-09-23T10:54:38.451Z,52.15
2022-09-23T10:57:40.723Z,52.50
2022-09-23T11:00:28.860Z,53.78
2022-09-23T11:03:13.275Z,55.18
2022-09-23T11:06:01.013Z,51.00
2022-09-23T11:11:49.172Z,51.71
2022-09-23T11:14:25.197Z,49.37
2022-09-23T11:16:54.797Z,52.77
2022-09-23T11:19:46.306Z,51.21
2022-09-23T11:22:20.219Z,50.08
2022-09-23T11:24:53.090Z,48.22
2022-09-23T11:27:28.606Z,47.36
2022-09-23T11:30:12.721Z,48.91
2022-09-23T11:32:51.908Z,48.27
2022-09-23T11:35:21.321Z,47.72
2022-09-23T11:38:01.744Z,45.89
2022-09-23T11:40:33.630Z,42.80
2022-09-23T11:43:04.256Z,41.00
2022-09-23T11:45:32.549Z,42.97
2022-09-23T11:48:06.656Z,42.19
2022-09-23T11:50:36.892Z,42.74
2022-09-23T11:53:24.562Z,44.82
2022-09-23T11:56:00.851Z,44.24
2022-09-23T11:58:29.908Z,44.15
2022-09-23T12:01:10.040Z,41.50
2022-09-23T12:03:48.363Z,42.77
2022-09-23T12:06:18.240Z,42.63
2022-09-23T12:08:44.849Z,43.63
2022-09-23T12:11:31.122Z,44.08
2022-09-23T12:14:16.198Z,46.62
2022-09-23T12:17:01.843Z,46.50
2022-09-23T12:19:35.996Z,47.42
2022-09-23T12:22:08.491Z,48.22
2022-09-23T12:24:41.443Z,46.95
2022-09-23T12:27:11.014Z,47.32
2022-09-23T12:29:37.598Z,47.47
2022-09-23T12:32:09.973Z,48.46
2022-09-23T12:34:39.978Z,48.15
2022-09-23T12:37:06.632Z,48.18
2022-09-23T12:39:34.661Z,47.90
2022-09-23T12:42:21.965Z,48.83
2022-09-23T12:44:48.778Z,48.85
2022-09-23T12:47:15.262Z,49.50
2022-09-23T12:49:42.767Z,49.16
2022-09-23T12:52:18.635Z,48.64
2022-09-23T12:54:56.374Z,48.06
2022-09-23T12:57:35.197Z,48.51
2022-09-23T13:00:13.102Z,49.88
2022-09-23T13:03:10.948Z,49.45
2022-09-23T13:06:19.475Z,49.52
2022-09-23T13:08:46.144Z,48.35
2022-09-23T13:11:22.885Z,48.35
2022-09-23T13:13:49.773Z,48.19
2022-09-23T13:16:46.099Z,48.17
2022-09-23T13:19:27.950Z,48.47
2022-09-23T13:21:54.475Z,47.73
2022-09-23T13:24:40.308Z,47.50
2022-09-23T13:27:17.522Z,47.63
2022-09-23T13:30:04.600Z,47.83
2022-09-23T13:32:33.400Z,48.09
2022-09-23T13:35:13.825Z,47.17
2022-09-23T13:37:47.652Z,46.92
2022-09-23T13:40:18.689Z,46.51
2022-09-23T13:43:03.201Z,47.34
2022-09-23T13:45:31.269Z,46.81
2022-09-23T13:48:11.640Z,47.02
2022-09-23T13:50:38.955Z,46.65
2022-09-23T13:53:10.513Z,47.31
2022-09-23T13:55:38.830Z,47.06
2022-09-23T13:58:22.424Z,47.33
2022-09-23T14:00:49.377Z,47.46
2022-09-23T14:03:17.367Z,47.81
2022-09-23T14:05:44.012Z,49.42
2022-09-23T14:08:10.572Z,48.65
2022-09-23T14:10:38.474Z,49.06
2022-09-23T14:13:05.347Z,47.56
2022-09-23T14:15:32.005Z,47.70
2022-09-23T14:18:02.474Z,46.86
2022-09-23T14:20:29.101Z,47.83
2022-09-23T14:23:11.141Z,48.57
2022-09-23T14:25:38.158Z,49.64
2022-09-23T14:28:04.712Z,49.21
2022-09-23T14:30:31.458Z,48.13
2022-09-23T14:32:59.193Z,47.69
2022-09-23T14:35:28.127Z,47.07
2022-09-23T14:38:14.685Z,46.53
2022-09-23T14:41:18.096Z,46.30
2022-09-23T14:43:52.305Z,45.74
2022-09-23T14:46:19.818Z,45.65
2022-09-23T14:48:58.547Z,45.18
2022-09-23T14:51:37.631Z,47.50
2022-09-23T14:54:26.620Z,49.06
2022-09-23T14:56:53.277Z,50.12
2022-09-23T14:59:28.226Z,50.85
2022-09-23T15:01:54.691Z,50.78
2022-09-23T15:04:24.190Z,51.12
2022-09-23T15:06:58.459Z,50.89
2022-09-23T15:09:41.078Z,51.75
2022-09-23T15:12:20.671Z,52.29
2022-09-23T15:14:54.686Z,52.40
2022-09-23T15:17:24.084Z,53.20
2022-09-23T15:19:58.552Z,52.40
2022-09-23T15:22:25.527Z,52.31
2022-09-23T15:24:53.522Z,52.92
2022-09-23T15:27:40.952Z,53.31
2022-09-23T15:30:16.256Z,55.64
2022-09-23T15:32:46.189Z,56.56
2022-09-23T15:35:25.628Z,56.80
2022-09-23T15:37:54.067Z,56.75
2022-09-23T15:40:34.595Z,57.64
2022-09-23T15:43:07.130Z,58.51
2022-09-23T15:45:44.673Z,58.91
2022-09-23T15:48:13.181Z,59.18
2022-09-23T15:50:41.251Z,59.49
2022-09-23T15:53:08.403Z,60.26
2022-09-23T15:55:34.973Z,61.28
2022-09-23T15:58:01.579Z,62.01
2022-09-23T16:00:28.121Z,62.79
2022-09-23T16:02:54.731Z,63.43
2022-09-23T16:05:31.693Z,64.61
2022-09-23T16:07:58.739Z,64.56
2022-09-23T16:10:25.483Z,64.54
2022-09-23T16:12:52.591Z,64.81
2022-09-23T16:15:20.136Z,64.76
2022-09-23T16:17:46.744Z,65.67
2022-09-23T16:20:17.877Z,65.52
2022-09-23T16:22:53.720Z,65.67
2022-09-23T16:25:21.417Z,65.24
2022-09-23T16:27:47.996Z,65.33
2022-09-23T16:30:14.646Z,65.01
2022-09-23T16:32:41.214Z,65.46
2022-09-23T16:35:08.513Z,65.40
2022-09-23T16:37:35.321Z,65.59
2022-09-23T16:40:03.836Z,65.39
2022-09-23T16:42:30.391Z,65.57
2022-09-23T16:44:56.966Z,65.88
2022-09-23T16:47:23.520Z,66.01
2022-09-23T16:49:50.102Z,66.58
2022-09-23T16:52:16.968Z,66.88
2022-09-23T16:54:43.957Z,66.50
2022-09-23T16:57:11.971Z,67.06
2022-09-23T16:59:58.906Z,67.16
2022-09-23T17:02:44.202Z,67.15
2022-09-23T17:05:16.222Z,66.98
2022-09-23T17:07:43.261Z,66.98
2022-09-23T17:10:10.215Z,67.94
2022-09-23T17:12:36.916Z,68.03
2022-09-23T17:15:07.496Z,67.73
2022-09-23T17:17:37.253Z,68.29
2022-09-23T17:20:05.500Z,68.57
2022-09-23T17:22:35.115Z,68.52
2022-09-23T17:25:03.758Z,68.32
2022-09-23T17:27:31.893Z,69.48
2022-09-23T17:29:58.973Z,69.09
2022-09-23T17:32:25.817Z,69.52
2022-09-23T17:34:52.407Z,69.94
2022-09-23T17:37:19.657Z,70.30
2022-09-23T17:39:46.472Z,70.53
2022-09-23T17:42:14.789Z,71.23
2022-09-23T17:44:41.406Z,71.01
2022-09-23T17:47:08.254Z,71.02
2022-09-23T17:49:35.430Z,71.58
2022-09-23T17:52:05.409Z,71.59
2022-09-23T17:54:32.686Z,71.68
2022-09-23T17:56:59.885Z,71.96
2022-09-23T17:59:26.731Z,72.17
2022-09-23T18:01:53.681Z,71.92
2022-09-23T18:04:20.550Z,71.80
2022-09-23T18:06:47.563Z,72.45
2022-09-23T18:09:14.183Z,72.80
2022-09-23T18:11:45.041Z,73.23
2022-09-23T18:14:12.894Z,73.22
2022-09-23T18:16:40.540Z,73.26
2022-09-23T18:19:08.110Z,74.07
2022-09-23T18:21:37.306Z,74.42
2022-09-23T18:24:28.574Z,74.79
2022-09-23T18:26:51.036Z,74.23
2022-09-23T18:29:18.796Z,74.21
2022-09-23T18:31:45.796Z,73.91
2022-09-23T18:34:14.338Z,74.18
2022-09-23T18:36:41.256Z,74.29
2022-09-23T18:39:07.945Z,74.23
2022-09-23T18:41:35.047Z,74.54
2022-09-23T18:44:01.850Z,75.03
2022-09-23T18:46:31.693Z,74.89
2022-09-23T18:49:17.635Z,75.06
2022-09-23T18:51:55.919Z,75.06
2022-09-23T18:54:23.560Z,75.38
2022-09-23T18:56:54.405Z,75.16
2022-09-23T18:59:23.930Z,74.93
2022-09-23T19:01:50.910Z,75.05
2022-09-23T19:04:21.728Z,74.94
2022-09-23T19:06:48.412Z,75.69
2022-09-23T19:09:17.346Z,75.02
2022-09-23T19:11:44.482Z,75.12
2022-09-23T19:14:11.764Z,75.01
2022-09-23T19:16:39.444Z,74.66
2022-09-23T19:19:06.340Z,74.79
2022-09-23T19:21:33.506Z,75.03
2022-09-23T19:24:03.381Z,75.26
2022-09-23T19:26:32.780Z,75.13
2022-09-23T19:29:00.092Z,74.95
2022-09-23T19:31:31.584Z,75.07
2022-09-23T19:33:59.961Z,74.63
2022-09-23T19:36:30.201Z,74.93
2022-09-23T19:38:57.954Z,74.91
2022-09-23T19:41:29.082Z,74.83
2022-09-23T19:43:56.858Z,75.18
2022-09-23T19:46:23.769Z,75.77
2022-09-23T19:48:50.838Z,75.30
2022-09-23T19:51:19.363Z,75.75
2022-09-23T19:53:46.040Z,75.75
2022-09-23T19:56:17.783Z,75.83
2022-09-23T19:58:48.882Z,76.25
2022-09-23T20:01:16.305Z,75.67
2022-09-23T20:03:47.201Z,75.77
2022-09-23T20:06:14.476Z,75.94
2022-09-23T20:08:41.405Z,76.06
2022-09-23T20:11:11.142Z,76.44
2022-09-23T20:13:39.045Z,76.58
2022-09-23T20:16:10.372Z,76.12
2022-09-23T20:18:38.064Z,76.66
2022-09-23T20:21:05.728Z,76.84
2022-09-23T20:23:32.371Z,76.79
2022-09-23T20:26:17.901Z,76.83
2022-09-23T20:28:44.704Z,76.82
2022-09-23T20:31:12.214Z,77.36
2022-09-23T20:33:41.514Z,77.20
2022-09-23T20:36:09.246Z,77.21
2022-09-23T20:38:39.932Z,77.20
2022-09-23T20:41:07.264Z,77.22
2022-09-23T20:43:34.595Z,77.48
2022-09-23T20:46:02.620Z,77.36
2022-09-23T20:48:29.755Z,77.17
2022-09-23T20:51:03.521Z,77.40
2022-09-23T20:53:31.134Z,77.50
2022-09-23T20:55:58.222Z,77.82
2022-09-23T20:58:32.934Z,77.94
2022-09-23T21:01:01.820Z,77.42
2022-09-23T21:03:31.741Z,78.08
2022-09-23T21:06:04.667Z,77.78
2022-09-23T21:08:32.049Z,78.25
2022-09-23T21:10:58.956Z,77.98
2022-09-23T21:13:25.727Z,78.33
2022-09-23T21:15:52.392Z,78.47
2022-09-23T21:18:22.404Z,78.89
2022-09-23T21:20:59.275Z,79.00
2022-09-23T21:23:27.193Z,79.05
2022-09-23T21:26:06.823Z,79.01
2022-09-23T21:28:37.657Z,78.70
2022-09-23T21:31:06.313Z,79.22
2022-09-23T21:33:33.131Z,79.40
2022-09-23T21:36:03.583Z,79.23
2022-09-23T21:38:31.005Z,79.68
2022-09-23T21:40:58.900Z,79.74
2022-09-23T21:43:26.454Z,79.66
2022-09-23T21:46:00.825Z,79.47
2022-09-23T21:48:31.593Z,79.43
2022-09-23T21:50:59.399Z,79.03
2022-09-23T21:53:26.675Z,79.02
2022-09-23T21:55:53.316Z,79.08
2022-09-23T21:58:19.899Z,79.40
2022-09-23T22:00:46.590Z,78.86
2022-09-23T22:03:13.241Z,79.49
2022-09-23T22:05:43.300Z,79.20
2022-09-23T22:08:10.203Z,79.38
2022-09-23T22:10:37.432Z,79.66
2022-09-23T22:13:08.101Z,79.83
2022-09-23T22:15:37.697Z,79.68
2022-09-23T22:18:05.362Z,79.98
2022-09-23T22:20:34.203Z,79.84
2022-09-23T22:23:00.794Z,79.73
2022-09-23T22:25:28.937Z,79.76
2022-09-23T22:28:13.949Z,79.73
2022-09-23T22:30:59.202Z,79.57
2022-09-23T22:33:25.866Z,80.07
2022-09-23T22:35:52.438Z,80.39
2022-09-23T22:38:19.172Z,80.15
2022-09-23T22:40:45.889Z,79.80
2022-09-23T22:43:12.689Z,80.03
2022-09-23T22:45:39.773Z,80.00
2022-09-23T22:48:06.373Z,80.13
2022-09-23T22:51:12.254Z,80.33
2022-09-23T22:53:38.895Z,79.80
2022-09-23T22:56:05.467Z,80.48
2022-09-23T22:58:32.926Z,80.12
2022-09-23T23:00:59.656Z,80.44
2022-09-23T23:03:30.471Z,80.29
2022-09-23T23:06:00.481Z,80.62
2022-09-23T23:08:27.939Z,80.68
2022-09-23T23:10:55.454Z,80.71
2022-09-23T23:13:22.748Z,80.68
2022-09-23T23:15:49.375Z,80.54
2022-09-23T23:18:16.091Z,80.75
2022-09-23T23:20:42.812Z,80.37
2022-09-23T23:23:09.396Z,80.66
2022-09-23T23:25:35.989Z,79.92
2022-09-23T23:28:05.639Z,80.23
2022-09-23T23:30:33.927Z,80.44
2022-09-23T23:33:00.626Z,80.31
2022-09-23T23:35:27.766Z,80.63
2022-09-23T23:37:54.640Z,80.65
2022-09-23T23:40:22.744Z,80.77
2022-09-23T23:42:49.425Z,80.58
2022-09-23T23:45:16.682Z,80.45
2022-09-23T23:47:44.045Z,80.88
2022-09-23T23:50:10.986Z,81.18
2022-09-23T23:52:37.560Z,81.06
2022-09-23T23:55:04.366Z,80.73
2022-09-23T23:57:31.012Z,81.75
2022-09-23T23:59:57.701Z,81.47
